sensor_id;sensor_type;location;lat;lon;timestamp;pressure;altitude;pressure_sealevel;temperature;humidity
5283;BME280;15376;48.540;9.268;2023-07-16T00:00:00;97393.91;;;19.86;100.00
5283;BME280;15376;48.540;9.268;2023-07-16T00:02:25;97420.69;;;20.10;100.00
5283;BME280;15376;48.540;9.268;2023-07-16T00:04:51;97422.50;;;20.04;100.00
5283;BME280;15376;48.540;9.268;2023-07-16T00:07:16;97438.41;;;20.06;100.00
5283;BME280;15376;48.540;9.268;2023-07-16T00:09:43;97448.72;;;20.09;100.00
5283;BME280;15376;48.540;9.268;2023-07-16T00:12:09;97455.91;;;19.86;100.00
5283;BME280;15376;48.540;9.268;2023-07-16T00:14:34;97466.78;;;19.63;100.00
5283;BME280;15376;48.540;9.268;2023-07-16T00:16:59;97463.00;;;19.36;100.00
5283;BME280;15376;48.540;9.268;2023-07-16T00:19:25;97419.59;;;19.20;100.00
5283;BME280;15376;48.540;9.268;2023-07-16T00:21:50;97469.78;;;19.38;100.00
5283;BME280;15376;48.540;9.268;2023-07-16T00:24:15;97415.69;;;18.99;100.00
5283;BME280;15376;48.540;9.268;2023-07-16T00:26:41;97426.91;;;19.08;100.00
5283;BME280;15376;48.540;9.268;2023-07-16T00:29:06;97476.00;;;19.27;100.00
5283;BME280;15376;48.540;9.268;2023-07-16T00:31:31;97485.94;;;19.38;100.00
5283;BME280;15376;48.540;9.268;2023-07-16T00:33:57;97495.31;;;19.36;100.00
5283;BME280;15376;48.540;9.268;2023-07-16T00:36:22;97500.94;;;19.34;100.00
5283;BME280;15376;48.540;9.268;2023-07-16T00:38:48;97480.06;;;19.41;100.00
5283;BME280;15376;48.540;9.268;2023-07-16T00:41:15;97459.25;;;19.37;100.00
5283;BME280;15376;48.540;9.268;2023-07-16T00:43:40;97477.75;;;19.33;100.00
5283;BME280;15376;48.540;9.268;2023-07-16T00:46:06;97471.53;;;19.44;100.00
5283;BME280;15376;48.540;9.268;2023-07-16T00:48:32;97466.63;;;19.41;100.00
5283;BME280;15376;48.540;9.268;2023-07-16T00:51:00;97476.22;;;19.37;100.00
5283;BME280;15376;48.540;9.268;2023-07-16T00:53:26;97457.47;;;19.14;100.00
5283;BME280;15376;48.540;9.268;2023-07-16T00:55:52;97467.47;;;19.30;100.00
5283;BME280;15376;48.540;9.268;2023-07-16T00:58:18;97499.28;;;19.45;100.00
5283;BME280;15376;48.540;9.268;2023-07-16T01:00:43;97494.22;;;19.48;100.00
5283;BME280;15376;48.540;9.268;2023-07-16T01:03:11;97477.06;;;19.26;100.00
5283;BME280;15376;48.540;9.268;2023-07-16T01:08:46;97496.03;;;19.31;100.00
5283;BME280;15376;48.540;9.268;2023-07-16T01:11:13;97472.56;;;19.15;100.00
5283;BME280;15376;48.540;9.268;2023-07-16T01:13:39;97489.09;;;19.35;100.00
5283;BME280;15376;48.540;9.268;2023-07-16T01:16:05;97482.66;;;19.36;100.00
5283;BME280;15376;48.540;9.268;2023-07-16T01:18:31;97494.16;;;19.31;100.00
5283;BME280;15376;48.540;9.268;2023-07-16T01:20:56;97500.72;;;19.24;100.00
5283;BME280;15376;48.540;9.268;2023-07-16T01:23:34;97506.03;;;19.19;100.00
5283;BME280;15376;48.540;9.268;2023-07-16T01:26:28;97512.47;;;19.18;100.00
5283;BME280;15376;48.540;9.268;2023-07-16T01:32:05;97513.91;;;18.62;100.00
5283;BME280;15376;48.540;9.268;2023-07-16T01:34:33;97524.31;;;18.70;100.00
5283;BME280;15376;48.540;9.268;2023-07-16T01:37:01;97513.38;;;18.53;100.00
5283;BME280;15376;48.540;9.268;2023-07-16T01:39:26;97519.69;;;18.47;100.00
5283;BME280;15376;48.540;9.268;2023-07-16T01:41:52;97499.22;;;18.46;100.00
5283;BME280;15376;48.540;9.268;2023-07-16T01:44:17;97491.84;;;18.42;100.00
5283;BME280;15376;48.540;9.268;2023-07-16T01:46:43;97478.91;;;18.39;100.00
5283;BME280;15376;48.540;9.268;2023-07-16T01:49:08;97499.47;;;18.45;100.00
5283;BME280;15376;48.540;9.268;2023-07-16T01:51:34;97494.31;;;18.43;100.00
5283;BME280;15376;48.540;9.268;2023-07-16T01:53:59;97460.72;;;18.11;100.00
5283;BME280;15376;48.540;9.268;2023-07-16T01:56:24;97428.81;;;18.03;100.00
5283;BME280;15376;48.540;9.268;2023-07-16T01:58:50;97471.63;;;18.27;100.00
5283;BME280;15376;48.540;9.268;2023-07-16T02:01:15;97457.84;;;18.24;100.00
5283;BME280;15376;48.540;9.268;2023-07-16T02:03:40;97474.78;;;18.24;100.00
5283;BME280;15376;48.540;9.268;2023-07-16T02:06:06;97472.56;;;18.21;100.00
5283;BME280;15376;48.540;9.268;2023-07-16T02:08:31;97482.16;;;18.41;100.00
5283;BME280;15376;48.540;9.268;2023-07-16T02:10:56;97474.19;;;18.22;100.00
5283;BME280;15376;48.540;9.268;2023-07-16T02:13:22;97464.34;;;18.05;100.00
5283;BME280;15376;48.540;9.268;2023-07-16T02:15:47;97469.47;;;18.06;100.00
5283;BME280;15376;48.540;9.268;2023-07-16T02:18:12;97489.16;;;18.18;100.00
5283;BME280;15376;48.540;9.268;2023-07-16T02:20:38;97494.25;;;18.08;100.00
5283;BME280;15376;48.540;9.268;2023-07-16T02:23:03;97472.34;;;18.23;100.00
5283;BME280;15376;48.540;9.268;2023-07-16T02:25:28;97401.31;;;17.65;100.00
5283;BME280;15376;48.540;9.268;2023-07-16T02:27:54;97466.94;;;18.11;100.00
5283;BME280;15376;48.540;9.268;2023-07-16T02:30:19;97490.53;;;18.09;100.00
5283;BME280;15376;48.540;9.268;2023-07-16T02:32:45;97484.34;;;17.97;100.00
5283;BME280;15376;48.540;9.268;2023-07-16T02:35:10;97505.25;;;17.95;100.00
5283;BME280;15376;48.540;9.268;2023-07-16T02:37:36;97507.94;;;18.07;100.00
5283;BME280;15376;48.540;9.268;2023-07-16T02:40:01;97463.38;;;17.57;100.00
5283;BME280;15376;48.540;9.268;2023-07-16T02:42:27;97495.03;;;17.85;100.00
5283;BME280;15376;48.540;9.268;2023-07-16T02:44:53;97484.47;;;17.72;100.00
5283;BME280;15376;48.540;9.268;2023-07-16T02:47:18;97486.56;;;17.70;100.00
5283;BME280;15376;48.540;9.268;2023-07-16T02:49:43;97531.66;;;17.98;100.00
5283;BME280;15376;48.540;9.268;2023-07-16T02:52:09;97492.63;;;17.47;100.00
5283;BME280;15376;48.540;9.268;2023-07-16T02:54:37;97485.19;;;17.49;100.00
5283;BME280;15376;48.540;9.268;2023-07-16T02:57:03;97511.34;;;17.72;100.00
5283;BME280;15376;48.540;9.268;2023-07-16T02:59:29;97521.53;;;17.82;100.00
5283;BME280;15376;48.540;9.268;2023-07-16T03:01:54;97516.69;;;17.72;100.00
5283;BME280;15376;48.540;9.268;2023-07-16T03:04:20;97528.41;;;17.59;100.00
5283;BME280;15376;48.540;9.268;2023-07-16T03:06:45;97559.16;;;17.82;100.00
5283;BME280;15376;48.540;9.268;2023-07-16T03:09:10;97489.59;;;17.25;100.00
5283;BME280;15376;48.540;9.268;2023-07-16T03:11:36;97552.31;;;17.49;100.00
5283;BME280;15376;48.540;9.268;2023-07-16T03:14:01;97557.22;;;17.52;100.00
5283;BME280;15376;48.540;9.268;2023-07-16T03:16:27;97559.34;;;17.62;100.00
5283;BME280;15376;48.540;9.268;2023-07-16T03:18:53;97564.50;;;17.63;100.00
5283;BME280;15376;48.540;9.268;2023-07-16T03:21:18;97561.22;;;17.61;100.00
5283;BME280;15376;48.540;9.268;2023-07-16T03:23:43;97589.69;;;17.51;100.00
5283;BME280;15376;48.540;9.268;2023-07-16T03:26:08;97556.56;;;17.57;100.00
5283;BME280;15376;48.540;9.268;2023-07-16T03:28:34;97502.28;;;17.37;100.00
5283;BME280;15376;48.540;9.268;2023-07-16T03:30:59;97558.09;;;17.64;100.00
5283;BME280;15376;48.540;9.268;2023-07-16T03:33:24;97591.38;;;17.82;100.00
5283;BME280;15376;48.540;9.268;2023-07-16T03:35:51;97583.09;;;17.83;100.00
5283;BME280;15376;48.540;9.268;2023-07-16T03:38:16;97570.50;;;17.65;100.00
5283;BME280;15376;48.540;9.268;2023-07-16T03:40:49;97571.69;;;17.70;100.00
5283;BME280;15376;48.540;9.268;2023-07-16T03:43:15;97516.81;;;17.29;100.00
5283;BME280;15376;48.540;9.268;2023-07-16T03:45:41;97568.72;;;17.41;100.00
5283;BME280;15376;48.540;9.268;2023-07-16T03:48:06;97595.72;;;17.46;100.00
5283;BME280;15376;48.540;9.268;2023-07-16T03:50:32;97583.63;;;17.55;100.00
5283;BME280;15376;48.540;9.268;2023-07-16T03:52:57;97594.81;;;17.52;100.00
5283;BME280;15376;48.540;9.268;2023-07-16T03:55:23;97606.84;;;17.50;100.00
5283;BME280;15376;48.540;9.268;2023-07-16T03:57:48;97596.59;;;17.40;100.00
5283;BME280;15376;48.540;9.268;2023-07-16T04:00:13;97591.97;;;17.29;100.00
5283;BME280;15376;48.540;9.268;2023-07-16T04:02:39;97626.91;;;17.65;100.00
5283;BME280;15376;48.540;9.268;2023-07-16T04:05:04;97596.13;;;17.61;100.00
5283;BME280;15376;48.540;9.268;2023-07-16T04:07:30;97617.81;;;17.66;100.00
5283;BME280;15376;48.540;9.268;2023-07-16T04:09:55;97605.72;;;17.57;100.00
5283;BME280;15376;48.540;9.268;2023-07-16T04:12:20;97586.47;;;17.42;100.00
5283;BME280;15376;48.540;9.268;2023-07-16T04:14:47;97587.50;;;17.41;100.00
5283;BME280;15376;48.540;9.268;2023-07-16T04:17:12;97611.97;;;17.51;100.00
5283;BME280;15376;48.540;9.268;2023-07-16T04:19:38;97619.88;;;17.46;100.00
5283;BME280;15376;48.540;9.268;2023-07-16T04:22:04;97612.56;;;17.35;100.00
5283;BME280;15376;48.540;9.268;2023-07-16T04:24:29;97624.84;;;17.24;100.00
5283;BME280;15376;48.540;9.268;2023-07-16T04:26:55;97600.84;;;17.11;100.00
5283;BME280;15376;48.540;9.268;2023-07-16T04:29:21;97625.81;;;17.30;100.00
5283;BME280;15376;48.540;9.268;2023-07-16T04:31:46;97612.34;;;17.18;100.00
5283;BME280;15376;48.540;9.268;2023-07-16T04:34:12;97629.72;;;17.34;100.00
5283;BME280;15376;48.540;9.268;2023-07-16T04:36:38;97639.53;;;17.22;100.00
5283;BME280;15376;48.540;9.268;2023-07-16T04:39:03;97639.19;;;17.18;100.00
5283;BME280;15376;48.540;9.268;2023-07-16T04:41:29;97620.56;;;16.98;100.00
5283;BME280;15376;48.540;9.268;2023-07-16T04:43:55;97632.66;;;17.08;100.00
5283;BME280;15376;48.540;9.268;2023-07-16T04:46:20;97642.53;;;17.14;100.00
5283;BME280;15376;48.540;9.268;2023-07-16T04:48:45;97623.19;;;17.05;100.00
5283;BME280;15376;48.540;9.268;2023-07-16T04:51:10;97640.13;;;17.24;100.00
5283;BME280;15376;48.540;9.268;2023-07-16T04:53:36;97643.84;;;17.23;100.00
5283;BME280;15376;48.540;9.268;2023-07-16T04:56:01;97641.69;;;17.13;100.00
5283;BME280;15376;48.540;9.268;2023-07-16T04:58:26;97641.75;;;17.07;100.00
5283;BME280;15376;48.540;9.268;2023-07-16T05:00:52;97662.34;;;17.13;100.00
5283;BME280;15376;48.540;9.268;2023-07-16T05:03:17;97637.88;;;17.03;100.00
5283;BME280;15376;48.540;9.268;2023-07-16T05:05:42;97636.78;;;17.10;100.00
5283;BME280;15376;48.540;9.268;2023-07-16T05:08:08;97645.91;;;17.03;100.00
5283;BME280;15376;48.540;9.268;2023-07-16T05:10:33;97657.81;;;17.13;100.00
5283;BME280;15376;48.540;9.268;2023-07-16T05:12:59;97665.84;;;17.13;100.00
5283;BME280;15376;48.540;9.268;2023-07-16T05:15:24;97665.50;;;17.28;100.00
5283;BME280;15376;48.540;9.268;2023-07-16T05:17:50;97662.38;;;17.31;100.00
5283;BME280;15376;48.540;9.268;2023-07-16T05:20:15;97606.31;;;16.98;100.00
5283;BME280;15376;48.540;9.268;2023-07-16T05:22:40;97641.94;;;17.30;100.00
5283;BME280;15376;48.540;9.268;2023-07-16T05:25:06;97611.66;;;17.23;100.00
5283;BME280;15376;48.540;9.268;2023-07-16T05:27:32;97638.66;;;17.28;100.00
5283;BME280;15376;48.540;9.268;2023-07-16T05:29:57;97655.94;;;17.32;100.00
5283;BME280;15376;48.540;9.268;2023-07-16T05:32:22;97661.47;;;17.37;100.00
5283;BME280;15376;48.540;9.268;2023-07-16T05:34:48;97656.50;;;17.41;100.00
5283;BME280;15376;48.540;9.268;2023-07-16T05:37:13;97661.19;;;17.45;100.00
5283;BME280;15376;48.540;9.268;2023-07-16T05:39:39;97672.66;;;17.34;100.00
5283;BME280;15376;48.540;9.268;2023-07-16T05:42:05;97665.03;;;17.31;100.00
5283;BME280;15376;48.540;9.268;2023-07-16T05:44:31;97654.47;;;17.36;100.00
5283;BME280;15376;48.540;9.268;2023-07-16T05:46:56;97617.00;;;17.23;100.00
5283;BME280;15376;48.540;9.268;2023-07-16T05:49:22;97648.31;;;17.54;100.00
5283;BME280;15376;48.540;9.268;2023-07-16T05:51:47;97621.09;;;17.50;100.00
5283;BME280;15376;48.540;9.268;2023-07-16T05:54:13;97594.81;;;17.52;100.00
5283;BME280;15376;48.540;9.268;2023-07-16T05:56:39;97535.97;;;17.32;100.00
5283;BME280;15376;48.540;9.268;2023-07-16T05:59:04;97643.31;;;17.94;100.00
5283;BME280;15376;48.540;9.268;2023-07-16T06:01:29;97659.44;;;17.94;100.00
5283;BME280;15376;48.540;9.268;2023-07-16T06:03:55;97667.19;;;18.02;100.00
5283;BME280;15376;48.540;9.268;2023-07-16T06:06:20;97669.28;;;18.00;100.00
5283;BME280;15376;48.540;9.268;2023-07-16T06:08:45;97676.28;;;18.01;100.00
5283;BME280;15376;48.540;9.268;2023-07-16T06:11:12;97684.34;;;18.01;100.00
5283;BME280;15376;48.540;9.268;2023-07-16T06:13:37;97667.09;;;18.09;100.00
5283;BME280;15376;48.540;9.268;2023-07-16T06:16:03;97651.53;;;17.99;100.00
5283;BME280;15376;48.540;9.268;2023-07-16T06:18:28;97642.69;;;18.10;100.00
5283;BME280;15376;48.540;9.268;2023-07-16T06:20:53;97614.53;;;17.83;100.00
5283;BME280;15376;48.540;9.268;2023-07-16T06:23:20;97667.03;;;18.15;100.00
5283;BME280;15376;48.540;9.268;2023-07-16T06:25:46;97640.78;;;17.99;100.00
5283;BME280;15376;48.540;9.268;2023-07-16T06:28:14;97648.78;;;18.17;100.00
5283;BME280;15376;48.540;9.268;2023-07-16T06:30:39;97613.78;;;18.06;100.00
5283;BME280;15376;48.540;9.268;2023-07-16T06:33:04;97633.84;;;18.21;100.00
5283;BME280;15376;48.540;9.268;2023-07-16T06:35:30;97595.56;;;17.96;100.00
5283;BME280;15376;48.540;9.268;2023-07-16T06:37:55;97638.50;;;18.14;100.00
5283;BME280;15376;48.540;9.268;2023-07-16T06:40:20;97613.09;;;17.98;100.00
5283;BME280;15376;48.540;9.268;2023-07-16T06:42:46;97638.91;;;18.29;100.00
5283;BME280;15376;48.540;9.268;2023-07-16T06:45:12;97645.94;;;18.30;100.00
5283;BME280;15376;48.540;9.268;2023-07-16T06:47:38;97654.00;;;18.30;100.00
5283;BME280;15376;48.540;9.268;2023-07-16T06:50:03;97629.69;;;18.07;100.00
5283;BME280;15376;48.540;9.268;2023-07-16T06:52:29;97642.34;;;18.37;100.00
5283;BME280;15376;48.540;9.268;2023-07-16T06:54:56;97664.84;;;18.54;100.00
5283;BME280;15376;48.540;9.268;2023-07-16T06:57:22;97652.72;;;18.63;100.00
5283;BME280;15376;48.540;9.268;2023-07-16T06:59:47;97663.75;;;18.73;100.00
5283;BME280;15376;48.540;9.268;2023-07-16T07:02:13;97659.53;;;18.65;100.00
5283;BME280;15376;48.540;9.268;2023-07-16T07:04:38;97603.75;;;18.31;100.00
5283;BME280;15376;48.540;9.268;2023-07-16T07:07:04;97645.72;;;18.44;100.00
5283;BME280;15376;48.540;9.268;2023-07-16T07:09:29;97617.72;;;18.21;100.00
5283;BME280;15376;48.540;9.268;2023-07-16T07:11:55;97630.66;;;18.13;100.00
5283;BME280;15376;48.540;9.268;2023-07-16T07:14:20;97630.28;;;18.09;100.00
5283;BME280;15376;48.540;9.268;2023-07-16T07:16:45;97626.00;;;17.90;100.00
5283;BME280;15376;48.540;9.268;2023-07-16T07:19:11;97637.94;;;17.94;100.00
5283;BME280;15376;48.540;9.268;2023-07-16T07:21:36;97637.59;;;18.20;100.00
5283;BME280;15376;48.540;9.268;2023-07-16T07:24:01;97635.56;;;18.46;100.00
5283;BME280;15376;48.540;9.268;2023-07-16T07:26:27;97639.13;;;18.58;100.00
5283;BME280;15376;48.540;9.268;2023-07-16T07:28:52;97611.72;;;18.79;100.00
5283;BME280;15376;48.540;9.268;2023-07-16T07:31:18;97631.41;;;19.15;100.00
5283;BME280;15376;48.540;9.268;2023-07-16T07:33:43;97634.19;;;18.96;100.00
5283;BME280;15376;48.540;9.268;2023-07-16T07:36:09;97619.34;;;19.06;100.00
5283;BME280;15376;48.540;9.268;2023-07-16T07:38:34;97628.13;;;19.13;100.00
5283;BME280;15376;48.540;9.268;2023-07-16T07:41:00;97584.22;;;19.12;100.00
5283;BME280;15376;48.540;9.268;2023-07-16T07:43:25;97651.06;;;19.50;100.00
5283;BME280;15376;48.540;9.268;2023-07-16T07:45:50;97611.34;;;19.34;100.00
5283;BME280;15376;48.540;9.268;2023-07-16T07:48:16;97653.50;;;19.63;100.00
5283;BME280;15376;48.540;9.268;2023-07-16T07:50:41;97635.94;;;19.49;100.00
5283;BME280;15376;48.540;9.268;2023-07-16T07:53:06;97653.63;;;19.69;100.00
5283;BME280;15376;48.540;9.268;2023-07-16T07:55:33;97651.91;;;20.03;100.00
5283;BME280;15376;48.540;9.268;2023-07-16T07:57:59;97650.94;;;20.09;100.00
5283;BME280;15376;48.540;9.268;2023-07-16T08:00:24;97641.94;;;20.03;100.00
5283;BME280;15376;48.540;9.268;2023-07-16T08:02:50;97640.53;;;20.01;100.00
5283;BME280;15376;48.540;9.268;2023-07-16T08:05:15;97630.63;;;19.89;100.00
5283;BME280;15376;48.540;9.268;2023-07-16T08:07:40;97662.84;;;20.24;100.00
5283;BME280;15376;48.540;9.268;2023-07-16T08:10:06;97630.28;;;19.86;100.00
5283;BME280;15376;48.540;9.268;2023-07-16T08:12:31;97652.25;;;20.06;100.00
5283;BME280;15376;48.540;9.268;2023-07-16T08:14:57;97655.63;;;20.13;100.00
5283;BME280;15376;48.540;9.268;2023-07-16T08:17:23;97621.25;;;19.80;100.00
5283;BME280;15376;48.540;9.268;2023-07-16T08:19:48;97665.75;;;20.35;100.00
5283;BME280;15376;48.540;9.268;2023-07-16T08:22:13;97660.78;;;20.72;100.00
5283;BME280;15376;48.540;9.268;2023-07-16T08:24:39;97600.25;;;20.51;98.06
5283;BME280;15376;48.540;9.268;2023-07-16T08:27:04;97648.44;;;20.76;98.86
5283;BME280;15376;48.540;9.268;2023-07-16T08:29:30;97637.56;;;20.87;97.03
5283;BME280;15376;48.540;9.268;2023-07-16T08:31:55;97564.34;;;20.50;94.39
5283;BME280;15376;48.540;9.268;2023-07-16T08:34:20;97635.03;;;21.31;94.79
5283;BME280;15376;48.540;9.268;2023-07-16T08:36:46;97623.00;;;21.60;92.75
5283;BME280;15376;48.540;9.268;2023-07-16T08:39:11;97624.41;;;21.63;94.52
5283;BME280;15376;48.540;9.268;2023-07-16T08:41:38;97644.41;;;21.84;89.37
5283;BME280;15376;48.540;9.268;2023-07-16T08:44:03;97588.59;;;21.34;90.93
5283;BME280;15376;48.540;9.268;2023-07-16T08:46:28;97619.72;;;21.37;89.87
5283;BME280;15376;48.540;9.268;2023-07-16T08:48:54;97594.34;;;21.21;87.50
5283;BME280;15376;48.540;9.268;2023-07-16T08:51:20;97604.03;;;21.17;90.36
5283;BME280;15376;48.540;9.268;2023-07-16T08:53:47;97638.72;;;21.25;92.53
5283;BME280;15376;48.540;9.268;2023-07-16T08:56:13;97641.31;;;21.20;94.69
5283;BME280;15376;48.540;9.268;2023-07-16T08:58:38;97634.72;;;21.27;95.04
5283;BME280;15376;48.540;9.268;2023-07-16T09:01:05;97598.91;;;21.37;91.66
5283;BME280;15376;48.540;9.268;2023-07-16T09:03:30;97635.91;;;21.53;88.21
5283;BME280;15376;48.540;9.268;2023-07-16T09:05:56;97645.03;;;21.30;89.02
5283;BME280;15376;48.540;9.268;2023-07-16T09:08:21;97668.00;;;21.50;91.18
5283;BME280;15376;48.540;9.268;2023-07-16T09:10:56;97661.72;;;21.44;87.49
5283;BME280;15376;48.540;9.268;2023-07-16T09:13:23;97632.34;;;21.31;91.68
5283;BME280;15376;48.540;9.268;2023-07-16T09:15:52;97672.72;;;21.59;90.80
5283;BME280;15376;48.540;9.268;2023-07-16T09:18:22;97654.38;;;21.61;85.82
5283;BME280;15376;48.540;9.268;2023-07-16T09:20:53;97655.66;;;21.76;85.69
5283;BME280;15376;48.540;9.268;2023-07-16T09:23:19;97661.22;;;21.86;84.01
5283;BME280;15376;48.540;9.268;2023-07-16T09:25:44;97661.97;;;22.03;82.68
5283;BME280;15376;48.540;9.268;2023-07-16T09:28:09;97643.09;;;22.08;79.85
5283;BME280;15376;48.540;9.268;2023-07-16T09:30:35;97654.13;;;22.23;81.03
5283;BME280;15376;48.540;9.268;2023-07-16T09:33:12;97654.56;;;22.42;81.60
5283;BME280;15376;48.540;9.268;2023-07-16T09:35:38;97652.44;;;22.71;80.07
5283;BME280;15376;48.540;9.268;2023-07-16T09:38:04;97605.44;;;22.55;76.90
5283;BME280;15376;48.540;9.268;2023-07-16T09:40:29;97630.28;;;22.74;77.49
5283;BME280;15376;48.540;9.268;2023-07-16T09:42:56;97660.56;;;22.71;78.40
5283;BME280;15376;48.540;9.268;2023-07-16T09:45:21;97646.22;;;22.71;77.61
5283;BME280;15376;48.540;9.268;2023-07-16T09:47:47;97597.34;;;22.28;81.85
5283;BME280;15376;48.540;9.268;2023-07-16T09:50:12;97656.44;;;22.90;78.67
5283;BME280;15376;48.540;9.268;2023-07-16T09:52:38;97644.25;;;22.93;75.55
5283;BME280;15376;48.540;9.268;2023-07-16T09:55:08;97644.66;;;23.07;76.77
5283;BME280;15376;48.540;9.268;2023-07-16T09:57:36;97594.78;;;23.03;77.15
5283;BME280;15376;48.540;9.268;2023-07-16T10:00:06;97619.44;;;23.43;73.44
5283;BME280;15376;48.540;9.268;2023-07-16T10:02:36;97646.88;;;23.52;71.11
5283;BME280;15376;48.540;9.268;2023-07-16T10:05:12;97654.84;;;22.94;72.71
5283;BME280;15376;48.540;9.268;2023-07-16T10:07:38;97648.97;;;23.03;76.77
5283;BME280;15376;48.540;9.268;2023-07-16T10:10:08;97656.16;;;23.24;69.02
5283;BME280;15376;48.540;9.268;2023-07-16T10:12:34;97644.94;;;23.47;75.05
5283;BME280;15376;48.540;9.268;2023-07-16T10:15:00;97655.03;;;24.09;73.00
5283;BME280;15376;48.540;9.268;2023-07-16T10:17:30;97593.69;;;24.03;67.84
5283;BME280;15376;48.540;9.268;2023-07-16T10:22:35;97646.56;;;25.39;72.80
5283;BME280;15376;48.540;9.268;2023-07-16T10:25:02;97651.84;;;26.05;63.00
5283;BME280;15376;48.540;9.268;2023-07-16T10:27:32;97660.91;;;25.90;59.46
5283;BME280;15376;48.540;9.268;2023-07-16T10:29:59;97650.88;;;25.76;60.43
5283;BME280;15376;48.540;9.268;2023-07-16T10:32:27;97654.13;;;27.26;56.92
5283;BME280;15376;48.540;9.268;2023-07-16T10:34:53;97622.59;;;28.39;51.08
5283;BME280;15376;48.540;9.268;2023-07-16T10:37:19;97641.72;;;29.60;49.72
5283;BME280;15376;48.540;9.268;2023-07-16T10:39:56;97585.91;;;30.74;50.58
5283;BME280;15376;48.540;9.268;2023-07-16T10:42:23;97639.41;;;31.92;42.87
5283;BME280;15376;48.540;9.268;2023-07-16T10:44:53;97640.31;;;29.90;46.50
5283;BME280;15376;48.540;9.268;2023-07-16T10:47:22;97642.53;;;28.96;48.83
5283;BME280;15376;48.540;9.268;2023-07-16T10:49:48;97599.66;;;27.44;53.47
5283;BME280;15376;48.540;9.268;2023-07-16T10:52:14;97619.47;;;28.27;50.16
5283;BME280;15376;48.540;9.268;2023-07-16T10:54:42;97639.28;;;29.26;50.97
5283;BME280;15376;48.540;9.268;2023-07-16T10:57:08;97643.97;;;30.27;47.94
5283;BME280;15376;48.540;9.268;2023-07-16T10:59:33;97651.72;;;30.74;46.54
5283;BME280;15376;48.540;9.268;2023-07-16T11:02:01;97634.47;;;31.72;43.57
5283;BME280;15376;48.540;9.268;2023-07-16T11:04:33;97611.25;;;31.16;42.09
5283;BME280;15376;48.540;9.268;2023-07-16T11:06:58;97642.47;;;30.34;47.52
5283;BME280;15376;48.540;9.268;2023-07-16T11:09:24;97658.38;;;31.18;42.71
5283;BME280;15376;48.540;9.268;2023-07-16T11:11:49;97565.69;;;29.43;43.43
5283;BME280;15376;48.540;9.268;2023-07-16T11:14:14;97650.28;;;30.27;45.59
5283;BME280;15376;48.540;9.268;2023-07-16T11:16:40;97661.97;;;29.59;45.11
5283;BME280;15376;48.540;9.268;2023-07-16T11:19:06;97666.03;;;29.15;46.91
5283;BME280;15376;48.540;9.268;2023-07-16T11:21:35;97656.94;;;29.52;46.85
5283;BME280;15376;48.540;9.268;2023-07-16T11:24:08;97657.03;;;29.29;47.40
5283;BME280;15376;48.540;9.268;2023-07-16T11:26:33;97622.03;;;29.12;47.93
5283;BME280;15376;48.540;9.268;2023-07-16T11:28:59;97648.66;;;28.69;48.38
5283;BME280;15376;48.540;9.268;2023-07-16T11:31:24;97645.69;;;28.28;46.65
5283;BME280;15376;48.540;9.268;2023-07-16T11:33:49;97646.44;;;28.90;48.03
5283;BME280;15376;48.540;9.268;2023-07-16T11:36:16;97654.81;;;30.81;43.77
5283;BME280;15376;48.540;9.268;2023-07-16T11:38:41;97619.56;;;30.89;41.83
5283;BME280;15376;48.540;9.268;2023-07-16T11:41:07;97627.53;;;29.58;47.36
5283;BME280;15376;48.540;9.268;2023-07-16T11:43:35;97624.50;;;30.28;45.58
5283;BME280;15376;48.540;9.268;2023-07-16T11:46:02;97636.53;;;31.35;43.76
5283;BME280;15376;48.540;9.268;2023-07-16T11:48:28;97647.81;;;32.53;39.53
5283;BME280;15376;48.540;9.268;2023-07-16T11:50:53;97611.44;;;33.16;38.04
5283;BME280;15376;48.540;9.268;2023-07-16T11:53:19;97581.13;;;33.80;41.38
5283;BME280;15376;48.540;9.268;2023-07-16T11:55:44;97634.69;;;34.38;37.15
5283;BME280;15376;48.540;9.268;2023-07-16T11:58:09;97646.38;;;33.24;38.42
5283;BME280;15376;48.540;9.268;2023-07-16T12:00:35;97631.03;;;34.46;37.61
5283;BME280;15376;48.540;9.268;2023-07-16T12:03:00;97621.38;;;34.61;38.89
5283;BME280;15376;48.540;9.268;2023-07-16T12:05:26;97627.03;;;35.39;36.69
5283;BME280;15376;48.540;9.268;2023-07-16T12:07:53;97612.06;;;35.07;36.50
5283;BME280;15376;48.540;9.268;2023-07-16T12:10:18;97616.28;;;34.12;35.46
5283;BME280;15376;48.540;9.268;2023-07-16T12:12:43;97631.13;;;33.99;36.73
5283;BME280;15376;48.540;9.268;2023-07-16T12:15:09;97603.94;;;34.90;34.11
5283;BME280;15376;48.540;9.268;2023-07-16T12:17:35;97608.81;;;34.42;33.72
5283;BME280;15376;48.540;9.268;2023-07-16T12:20:01;97604.13;;;34.13;34.42
5283;BME280;15376;48.540;9.268;2023-07-16T12:22:28;97595.31;;;34.50;36.32
5283;BME280;15376;48.540;9.268;2023-07-16T12:24:54;97599.00;;;35.16;34.00
5283;BME280;15376;48.540;9.268;2023-07-16T12:27:19;97595.72;;;35.35;34.62
5283;BME280;15376;48.540;9.268;2023-07-16T12:29:45;97560.25;;;34.92;33.33
5283;BME280;15376;48.540;9.268;2023-07-16T12:32:10;97596.44;;;35.23;34.32
5283;BME280;15376;48.540;9.268;2023-07-16T12:34:36;97609.94;;;34.92;33.01
5283;BME280;15376;48.540;9.268;2023-07-16T12:37:02;97577.78;;;35.20;32.76
5283;BME280;15376;48.540;9.268;2023-07-16T12:39:28;97594.63;;;35.27;34.32
5283;BME280;15376;48.540;9.268;2023-07-16T12:41:53;97596.44;;;35.11;34.51
5283;BME280;15376;48.540;9.268;2023-07-16T12:44:19;97587.47;;;35.71;32.36
5283;BME280;15376;48.540;9.268;2023-07-16T12:46:44;97567.06;;;35.39;33.23
5283;BME280;15376;48.540;9.268;2023-07-16T12:49:09;97582.94;;;35.30;35.21
5283;BME280;15376;48.540;9.268;2023-07-16T12:51:35;97579.88;;;34.28;35.58
5283;BME280;15376;48.540;9.268;2023-07-16T12:54:00;97544.94;;;34.11;34.54
5283;BME280;15376;48.540;9.268;2023-07-16T12:56:26;97579.09;;;34.90;34.91
5283;BME280;15376;48.540;9.268;2023-07-16T12:58:51;97564.91;;;34.58;34.31
5283;BME280;15376;48.540;9.268;2023-07-16T13:01:17;97553.06;;;33.49;32.90
5283;BME280;15376;48.540;9.268;2023-07-16T13:03:42;97572.13;;;32.64;35.70
5283;BME280;15376;48.540;9.268;2023-07-16T13:06:07;97569.75;;;31.48;38.46